Seal Cove, Maine
Current Conditions -  °F | °C
As of 6:15 AM on Wednesday 22 Oct 2014 (Local Time) from KBHB Reporting Station
Overcast Overcast  
Wind Chill: 43°   Ceiling: 7500
Heat Index: 48°   Visibility: 10mi
Dew Point: 46°   Wind: 12mph
Humidity: 93%   Direction: 40°NE
Pressure: 30.16"   Gusts: 20mph
Location:  44.28°N, 68.4°W
Report Text: KBHB 221015Z AUTO 04010G17KT 10SM FEW023 SCT031 OVC075 09/08 A3016 RMK AO1 P0003
Loading
Personal Weather Stations






























Interactive Weather Map
Tropical Storm Tracking
New forecast layout! Learn more

10-Day Weather Forecast

Advertisements
Track Severe Weather on mobile